createdAt,value
2019-05-15T00:00:55.779Z,101329.00
2019-05-15T00:03:23.460Z,101332.13
2019-05-15T00:05:50.523Z,101327.72
2019-05-15T00:08:18.337Z,101329.08
2019-05-15T00:10:47.796Z,101329.95
2019-05-15T00:13:14.626Z,101331.83
2019-05-15T00:15:41.644Z,101325.76
2019-05-15T00:18:08.964Z,101327.20
2019-05-15T00:20:39.116Z,101321.98
2019-05-15T00:23:05.801Z,101330.95
2019-05-15T00:25:32.865Z,101325.97
2019-05-15T00:28:01.933Z,101321.93
2019-05-15T00:30:29.254Z,101317.56
2019-05-15T00:32:58.922Z,101328.64
2019-05-15T00:35:28.613Z,101321.27
2019-05-15T00:37:55.074Z,101323.98
2019-05-15T00:40:22.091Z,101314.91
2019-05-15T00:42:49.166Z,101320.86
2019-05-15T00:45:18.486Z,101312.41
2019-05-15T00:47:48.650Z,101302.26
2019-05-15T00:50:18.334Z,101299.56
2019-05-15T00:52:45.490Z,101295.13
2019-05-15T00:55:15.900Z,101291.97
2019-05-15T00:57:45.030Z,101287.45
2019-05-15T01:00:12.578Z,101287.45
2019-05-15T01:02:39.721Z,101285.08
2019-05-15T01:05:09.023Z,101282.00
2019-05-15T01:07:39.274Z,101280.70
2019-05-15T01:10:09.549Z,101284.44
2019-05-15T01:12:38.031Z,101274.22
2019-05-15T01:15:05.564Z,101279.61
2019-05-15T01:17:34.518Z,101274.81
2019-05-15T01:20:03.046Z,101277.52
2019-05-15T01:22:30.063Z,101270.88
2019-05-15T01:24:58.950Z,101270.78
2019-05-15T01:27:26.083Z,101267.56
2019-05-15T01:29:53.193Z,101267.17
2019-05-15T01:32:20.267Z,101264.94
2019-05-15T01:34:49.044Z,101266.30
2019-05-15T01:37:18.745Z,101260.79
2019-05-15T01:39:48.413Z,101261.64
2019-05-15T01:42:18.617Z,101263.80
2019-05-15T01:44:48.247Z,101263.00
2019-05-15T01:47:14.980Z,101257.80
2019-05-15T01:49:42.186Z,101258.23
2019-05-15T01:52:09.556Z,101260.59
2019-05-15T01:54:38.376Z,101252.23
2019-05-15T01:57:05.597Z,101255.25
2019-05-15T01:59:32.769Z,101254.30
2019-05-15T02:01:59.863Z,101256.45
2019-05-15T02:04:29.010Z,101252.45
2019-05-15T02:06:58.752Z,101247.31
2019-05-15T02:09:25.239Z,101251.66
2019-05-15T02:11:52.299Z,101248.03
2019-05-15T02:14:19.349Z,101252.16
2019-05-15T02:16:48.363Z,101242.05
2019-05-15T02:19:15.699Z,101249.58
2019-05-15T02:21:42.743Z,101248.69
2019-05-15T02:24:09.911Z,101246.52
2019-05-15T02:26:38.863Z,101245.66
2019-05-15T02:29:07.855Z,101243.95
2019-05-15T02:31:35.225Z,101239.36
2019-05-15T02:34:02.350Z,101246.37
2019-05-15T02:36:29.588Z,101238.67
2019-05-15T02:38:59.645Z,101237.45
2019-05-15T02:41:29.824Z,101241.54
2019-05-15T02:43:59.181Z,101240.46
2019-05-15T02:46:26.157Z,101236.23
2019-05-15T02:48:53.290Z,101234.14
2019-05-15T02:51:20.338Z,101235.74
2019-05-15T02:53:49.948Z,101234.20
2019-05-15T02:56:20.703Z,101231.22
2019-05-15T02:58:50.569Z,101234.94
2019-05-15T03:01:19.020Z,101236.09
2019-05-15T03:03:49.441Z,101236.52
2019-05-15T03:06:19.030Z,101237.68
2019-05-15T03:08:49.691Z,101236.53
2019-05-15T03:11:19.195Z,101239.09
2019-05-15T03:13:49.984Z,101236.96
2019-05-15T03:16:15.444Z,101238.20
2019-05-15T03:18:42.772Z,101235.57
2019-05-15T03:21:10.069Z,101227.47
2019-05-15T03:23:40.450Z,101232.16
2019-05-15T03:26:08.806Z,101227.83
2019-05-15T03:28:35.263Z,101230.14
2019-05-15T03:31:22.551Z,101227.69
2019-05-15T03:33:36.251Z,101220.55
2019-05-15T03:36:02.982Z,101228.60
2019-05-15T03:38:30.170Z,101231.98
2019-05-15T03:40:59.530Z,101231.19
2019-05-15T03:43:28.966Z,101220.77
2019-05-15T03:45:56.225Z,101220.70
2019-05-15T03:48:23.273Z,101229.06
2019-05-15T03:50:50.295Z,101225.51
2019-05-15T03:53:19.253Z,101228.45
2019-05-15T03:55:48.764Z,101231.31
2019-05-15T03:58:15.229Z,101229.97
2019-05-15T04:00:45.519Z,101230.60
2019-05-15T04:03:12.681Z,101225.53
2019-05-15T04:05:40.840Z,101224.89
2019-05-15T04:08:11.022Z,101226.09
2019-05-15T04:10:39.693Z,101230.66
2019-05-15T04:13:09.060Z,101219.66
2019-05-15T04:15:34.798Z,101221.72
2019-05-15T04:18:01.935Z,101226.92
2019-05-15T04:20:30.450Z,101225.92
2019-05-15T04:23:00.390Z,101220.72
2019-05-15T04:25:29.655Z,101224.23
2019-05-15T04:27:59.952Z,101230.41
2019-05-15T04:30:27.003Z,101235.95
2019-05-15T04:32:54.036Z,101232.47
2019-05-15T04:35:21.925Z,101230.00
2019-05-15T04:37:49.611Z,101229.33
2019-05-15T04:40:19.330Z,101233.56
2019-05-15T04:42:49.823Z,101236.75
2019-05-15T04:45:19.201Z,101228.38
2019-05-15T04:47:49.767Z,101232.32
2019-05-15T04:50:19.199Z,101239.72
2019-05-15T04:52:54.924Z,101237.40
2019-05-15T04:55:35.887Z,101231.97
2019-05-15T04:58:09.846Z,101233.38
2019-05-15T05:00:49.518Z,101236.96
2019-05-15T05:03:22.708Z,101240.48
2019-05-15T05:05:50.648Z,101238.95
2019-05-15T05:08:20.083Z,101239.25
2019-05-15T05:10:48.796Z,101239.91
2019-05-15T05:13:19.406Z,101240.22
2019-05-15T05:15:44.978Z,101239.72
2019-05-15T05:18:12.193Z,101248.09
2019-05-15T05:20:39.482Z,101237.41
2019-05-15T05:23:08.554Z,101233.48
2019-05-15T05:25:35.906Z,101240.50
2019-05-15T05:28:02.967Z,101237.20
2019-05-15T05:30:30.024Z,101248.59
2019-05-15T05:32:58.163Z,101240.41
2019-05-15T05:35:27.887Z,101239.53
2019-05-15T05:37:58.312Z,101238.56
2019-05-15T05:40:25.388Z,101235.81
2019-05-15T05:42:52.469Z,101236.59
2019-05-15T05:45:19.897Z,101235.09
2019-05-15T05:47:48.670Z,101232.98
2019-05-15T05:50:33.319Z,101222.50
2019-05-15T05:53:00.469Z,101245.49
2019-05-15T05:55:28.725Z,101239.61
2019-05-15T05:57:58.323Z,101234.89
2019-05-15T06:00:32.717Z,101233.41
2019-05-15T06:02:59.795Z,101233.72
2019-05-15T06:05:28.095Z,101227.45
2019-05-15T06:07:58.220Z,101245.23
2019-05-15T06:10:25.704Z,101246.66
2019-05-15T06:12:52.746Z,101241.02
2019-05-15T06:15:19.849Z,101242.42
2019-05-15T06:17:48.108Z,101241.95
2019-05-15T06:20:15.267Z,101239.67
2019-05-15T06:22:42.386Z,101246.80
2019-05-15T06:25:11.710Z,101239.67
2019-05-15T06:27:43.406Z,101238.00
2019-05-15T06:30:19.252Z,101233.34
2019-05-15T06:32:41.656Z,101238.66
2019-05-15T06:35:10.047Z,101232.28
2019-05-15T06:37:39.501Z,101237.69
2019-05-15T06:40:08.440Z,101231.70
2019-05-15T06:42:39.273Z,101230.72
2019-05-15T06:45:08.099Z,101239.31
2019-05-15T06:47:35.245Z,101244.31
2019-05-15T06:50:03.622Z,101237.34
2019-05-15T06:52:31.926Z,101226.10
2019-05-15T06:54:59.381Z,101227.19
2019-05-15T06:57:28.700Z,101220.72
2019-05-15T06:59:57.831Z,101220.69
2019-05-15T07:02:24.651Z,101216.23
2019-05-15T07:04:53.790Z,101214.31
2019-05-15T07:07:20.924Z,101212.02
2019-05-15T07:09:48.777Z,101217.42
2019-05-15T07:12:18.512Z,101213.23
2019-05-15T07:14:45.181Z,101219.30
2019-05-15T07:17:12.258Z,101213.14
2019-05-15T07:19:39.502Z,101215.02
2019-05-15T07:22:09.193Z,101216.77
2019-05-15T07:24:38.222Z,101211.42
2019-05-15T07:27:07.871Z,101210.37
2019-05-15T07:29:35.557Z,101198.71
2019-05-15T07:32:02.793Z,101208.09
2019-05-15T07:34:32.999Z,101209.08
2019-05-15T07:37:01.803Z,101209.84
2019-05-15T07:39:30.026Z,101202.38
2019-05-15T07:41:57.823Z,101196.42
2019-05-15T07:44:28.189Z,101190.33
2019-05-15T07:46:58.347Z,101189.66
2019-05-15T07:49:25.778Z,101197.10
2019-05-15T07:51:59.580Z,101194.27
2019-05-15T07:54:29.621Z,101190.22
2019-05-15T07:56:58.192Z,101193.58
2019-05-15T07:59:27.802Z,101188.48
2019-05-15T08:01:54.508Z,101185.45
2019-05-15T08:04:28.759Z,101183.02
2019-05-15T08:06:50.690Z,101177.93
2019-05-15T08:09:18.121Z,101182.45
2019-05-15T08:11:45.242Z,101182.06
2019-05-15T08:14:12.514Z,101164.86
2019-05-15T08:16:39.874Z,101173.11
2019-05-15T08:19:08.660Z,101178.95
2019-05-15T08:21:38.560Z,101183.47
2019-05-15T08:24:08.379Z,101173.00
2019-05-15T08:26:37.788Z,101169.90
2019-05-15T08:29:04.357Z,101160.53
2019-05-15T08:31:33.781Z,101164.52
2019-05-15T08:34:13.554Z,101170.54
2019-05-15T08:41:05.457Z,101150.28
2019-05-15T08:43:38.087Z,101148.72
2019-05-15T08:46:08.263Z,101153.19
2019-05-15T08:48:35.303Z,101149.00
2019-05-15T08:51:02.798Z,101152.97
2019-05-15T08:53:29.808Z,101152.80
2019-05-15T08:55:58.826Z,101158.88
2019-05-15T08:58:26.194Z,101147.02
2019-05-15T09:00:53.594Z,101141.13
2019-05-15T09:03:20.953Z,101141.30
2019-05-15T09:05:48.748Z,101145.30
2019-05-15T09:08:18.851Z,101127.20
2019-05-15T09:10:44.962Z,101131.86
2019-05-15T09:13:12.084Z,101135.37
2019-05-15T09:15:39.668Z,101130.20
2019-05-15T09:18:14.992Z,101137.41
2019-05-15T09:20:38.363Z,101120.02
2019-05-15T09:23:05.040Z,101111.36
2019-05-15T09:25:32.117Z,101133.50
2019-05-15T09:27:59.189Z,101120.00
2019-05-15T09:30:28.473Z,101119.47
2019-05-15T09:32:55.140Z,101105.78
2019-05-15T09:35:22.219Z,101108.82
2019-05-15T09:37:49.330Z,101111.41
2019-05-15T09:40:18.881Z,101098.67
2019-05-15T09:42:48.508Z,101099.32
2019-05-15T09:45:15.279Z,101099.01
2019-05-15T09:47:44.275Z,101100.55
2019-05-15T09:50:12.670Z,101099.17
2019-05-15T09:52:39.773Z,101086.12
2019-05-15T09:55:08.694Z,101087.50
2019-05-15T09:57:38.635Z,101086.41
2019-05-15T10:00:08.950Z,101077.08
2019-05-15T10:02:39.396Z,101088.91
2019-05-15T10:05:10.980Z,101083.19
2019-05-15T10:07:36.581Z,101073.45
2019-05-15T10:10:04.447Z,101070.04
2019-05-15T10:12:34.918Z,101061.59
2019-05-15T10:15:00.591Z,101062.45
2019-05-15T10:17:29.072Z,101056.15
2019-05-15T10:19:58.227Z,101058.17
2019-05-15T10:22:28.170Z,101056.09
2019-05-15T10:24:54.937Z,101045.53
2019-05-15T10:27:22.149Z,101047.58
2019-05-15T10:29:49.148Z,101050.74
2019-05-15T10:32:19.255Z,101054.05
2019-05-15T10:34:46.770Z,101046.66
2019-05-15T10:37:13.907Z,101040.17
2019-05-15T10:39:40.932Z,101035.90
2019-05-15T10:42:10.125Z,101035.02
2019-05-15T10:44:39.353Z,101035.84
2019-05-15T10:47:08.913Z,101041.05
2019-05-15T10:49:36.152Z,101037.20
2019-05-15T10:52:03.224Z,101029.65
2019-05-15T10:54:30.302Z,101034.11
2019-05-15T10:57:00.510Z,101025.05
2019-05-15T10:59:27.698Z,101024.42
2019-05-15T11:01:59.035Z,101002.87
2019-05-15T11:04:28.676Z,101015.73
2019-05-15T11:07:03.627Z,101010.80
2019-05-15T11:09:30.683Z,101004.73
2019-05-15T11:11:58.366Z,101002.70
2019-05-15T11:14:25.685Z,101002.56
2019-05-15T11:16:52.756Z,100991.78
2019-05-15T11:19:20.090Z,100993.37
2019-05-15T11:21:49.250Z,100985.98
2019-05-15T11:24:16.566Z,100982.97
2019-05-15T11:26:43.798Z,100971.02
2019-05-15T11:29:10.901Z,100986.38
2019-05-15T11:31:39.350Z,100986.00
2019-05-15T11:34:09.172Z,100976.55
2019-05-15T11:36:38.501Z,100982.33
2019-05-15T11:39:08.406Z,100969.84
2019-05-15T11:41:38.473Z,100970.98
2019-05-15T11:44:10.367Z,100972.76
2019-05-15T11:46:41.422Z,100957.93
2019-05-15T11:49:11.273Z,100962.03
2019-05-15T11:51:38.499Z,100960.70
2019-05-15T11:54:08.050Z,100955.66
2019-05-15T11:56:34.942Z,100950.63
2019-05-15T11:59:02.058Z,100949.34
2019-05-15T12:01:29.468Z,100944.09
2019-05-15T12:03:58.537Z,100944.20
2019-05-15T12:06:26.079Z,100935.63
2019-05-15T12:08:53.523Z,100929.33
2019-05-15T12:11:31.108Z,100929.12
2019-05-15T12:13:49.866Z,100936.75
2019-05-15T12:16:17.331Z,100930.25
2019-05-15T12:18:44.548Z,100928.77
2019-05-15T12:21:19.622Z,100925.53
2019-05-15T12:23:44.045Z,100923.06
2019-05-15T12:26:12.958Z,100931.64
2019-05-15T12:28:40.558Z,100921.95
2019-05-15T12:31:08.964Z,100915.53
2019-05-15T12:33:38.621Z,100897.42
2019-05-15T12:36:14.846Z,100910.86
2019-05-15T12:38:42.128Z,100906.33
2019-05-15T13:01:16.546Z,100878.86
2019-05-15T13:03:35.382Z,100899.09
2019-05-15T13:06:10.891Z,100877.64
2019-05-15T13:08:38.625Z,100883.78
2019-05-15T13:11:09.648Z,100884.28
2019-05-15T13:13:35.030Z,100869.97
2019-05-15T13:16:02.186Z,100869.67
2019-05-15T13:18:29.692Z,100867.20
2019-05-15T13:20:59.180Z,100863.01
2019-05-15T13:23:28.814Z,100856.59
2019-05-15T13:25:59.122Z,100871.44
2019-05-15T13:28:28.998Z,100856.98
2019-05-15T13:30:55.916Z,100841.88
2019-05-15T13:33:23.112Z,100851.16
2019-05-15T13:35:50.190Z,100849.28
2019-05-15T13:38:33.668Z,100859.70
2019-05-15T13:41:00.801Z,100841.50
2019-05-15T13:43:29.821Z,100848.96
2019-05-15T13:45:58.132Z,100843.47
2019-05-15T13:48:25.146Z,100839.08
2019-05-15T13:50:59.168Z,100841.22
2019-05-15T13:53:30.312Z,100845.28
2019-05-15T13:55:57.487Z,100843.53
2019-05-15T13:58:29.742Z,100831.94
2019-05-15T14:00:58.847Z,100829.80
2019-05-15T14:03:28.271Z,100831.13
2019-05-15T14:05:58.302Z,100834.83
2019-05-15T14:08:34.602Z,100834.42
2019-05-15T14:11:08.623Z,100830.23
2019-05-15T14:13:35.372Z,100823.94
2019-05-15T14:16:05.049Z,100814.85
2019-05-15T14:18:32.565Z,100814.57
2019-05-15T14:20:59.635Z,100810.61
2019-05-15T14:23:29.358Z,100804.45
2019-05-15T14:25:58.686Z,100817.68
2019-05-15T14:28:28.189Z,100805.36
2019-05-15T14:30:58.196Z,100800.98
2019-05-15T14:33:29.247Z,100813.46
2019-05-15T14:35:58.270Z,100806.52
2019-05-15T14:38:25.753Z,100805.45
2019-05-15T14:40:59.118Z,100778.39
2019-05-15T14:43:32.642Z,100803.04
2019-05-15T14:46:01.847Z,100796.80
2019-05-15T14:48:31.258Z,100796.66
2019-05-15T14:50:59.992Z,100795.88
2019-05-15T14:53:30.254Z,100785.44
2019-05-15T14:56:00.436Z,100795.84
2019-05-15T14:58:27.779Z,100793.80
2019-05-15T15:00:55.116Z,100792.18
2019-05-15T15:03:23.343Z,100788.04
2019-05-15T15:05:50.438Z,100790.16
2019-05-15T15:08:24.881Z,100781.25
2019-05-15T15:10:55.006Z,100796.34
2019-05-15T15:13:22.990Z,100783.09
2019-05-15T15:16:09.588Z,100783.52
2019-05-15T15:18:48.252Z,100788.92
2019-05-15T15:21:29.916Z,100781.19
2019-05-15T15:24:04.443Z,100784.91
2019-05-15T15:26:46.340Z,100786.67
2019-05-15T15:29:19.157Z,100784.83
2019-05-15T15:31:51.964Z,100789.91
2019-05-15T15:34:44.941Z,100781.88
2019-05-15T15:37:22.125Z,100774.92
2019-05-15T15:40:05.164Z,100784.29
2019-05-15T15:42:43.226Z,100812.44
2019-05-15T15:45:22.671Z,100787.01
2019-05-15T15:48:08.682Z,100784.32
2019-05-15T15:50:48.675Z,100782.66
2019-05-15T15:53:44.481Z,100773.34
2019-05-15T15:56:24.998Z,100782.25
2019-05-15T15:59:18.174Z,100787.72
2019-05-15T16:01:49.430Z,100792.00
2019-05-15T16:04:52.731Z,100776.37
2019-05-15T16:10:34.799Z,100779.69
2019-05-15T16:13:22.818Z,100785.30
2019-05-15T16:16:00.834Z,100794.27
2019-05-15T16:18:29.208Z,100790.78
2019-05-15T16:20:58.000Z,100789.55
2019-05-15T16:23:29.644Z,100794.37
2019-05-15T16:26:01.049Z,100775.69
2019-05-15T16:28:28.972Z,100786.57
2019-05-15T16:30:58.557Z,100784.89
2019-05-15T16:33:28.826Z,100790.42
2019-05-15T16:35:57.971Z,100796.91
2019-05-15T16:38:25.222Z,100755.19
2019-05-15T16:40:52.844Z,100797.28
2019-05-15T16:43:19.958Z,100785.68
2019-05-15T16:45:49.610Z,100798.57
2019-05-15T16:48:18.711Z,100802.66
2019-05-15T16:50:48.887Z,100800.52
2019-05-15T16:53:18.302Z,100800.07
2019-05-15T16:55:47.909Z,100801.58
2019-05-15T16:58:14.601Z,100802.64
2019-05-15T17:00:41.842Z,100799.27
2019-05-15T17:03:14.742Z,100810.41
2019-05-15T17:05:38.898Z,100811.27
2019-05-15T17:08:08.829Z,100813.88
2019-05-15T17:10:38.794Z,100810.12
2019-05-15T17:13:08.733Z,100811.73
2019-05-15T17:15:38.478Z,100810.83
2019-05-15T17:18:08.998Z,100813.59
2019-05-15T17:20:37.351Z,100815.41
2019-05-15T17:23:13.827Z,100816.05
2019-05-15T17:25:48.911Z,100817.59
2019-05-15T17:28:20.587Z,100814.02
2019-05-15T17:30:48.868Z,100809.16
2019-05-15T17:33:19.051Z,100803.35
2019-05-15T17:35:48.773Z,100822.70
2019-05-15T17:38:18.355Z,100810.81
2019-05-15T17:40:48.883Z,100817.52
2019-05-15T17:43:18.311Z,100803.28
2019-05-15T17:45:48.437Z,100813.64
2019-05-15T17:48:15.601Z,100815.92
2019-05-15T17:50:51.604Z,100796.71
2019-05-15T17:53:17.967Z,100813.39
2019-05-15T17:55:44.632Z,100813.22
2019-05-15T17:58:12.054Z,100815.32
2019-05-15T18:00:39.554Z,100821.35
2019-05-15T18:03:08.782Z,100827.37
2019-05-15T18:05:39.165Z,100828.22
2019-05-15T18:08:08.653Z,100822.14
2019-05-15T18:10:38.480Z,100834.92
2019-05-15T18:13:09.456Z,100823.09
2019-05-15T18:15:38.621Z,100819.80
2019-05-15T18:18:09.582Z,100819.55
2019-05-15T18:20:38.134Z,100823.44
2019-05-15T18:23:04.624Z,100827.66
2019-05-15T18:25:32.076Z,100828.52
2019-05-15T18:27:59.545Z,100824.43
2019-05-15T18:30:29.121Z,100827.03
2019-05-15T18:32:58.945Z,100825.04
2019-05-15T18:35:29.511Z,100823.84
2019-05-15T18:37:59.104Z,100825.08
2019-05-15T18:40:27.818Z,100821.27
2019-05-15T18:42:55.377Z,100827.43
2019-05-15T18:45:22.657Z,100818.84
2019-05-15T18:47:58.596Z,100828.41
2019-05-15T18:50:25.726Z,100834.99
2019-05-15T18:52:52.851Z,100828.53
2019-05-15T18:55:20.015Z,100827.63
2019-05-15T18:57:50.291Z,100831.92
2019-05-15T19:00:18.504Z,100826.98
2019-05-15T19:02:52.048Z,100826.51
2019-05-15T19:05:19.331Z,100825.84
2019-05-15T19:07:48.752Z,100830.13
2019-05-15T19:10:18.725Z,100829.19
2019-05-15T19:12:48.404Z,100830.66
2019-05-15T19:15:18.157Z,100838.74
2019-05-15T19:17:47.481Z,100836.80
2019-05-15T19:20:18.950Z,100837.78
2019-05-15T19:22:48.419Z,100837.25
2019-05-15T19:25:17.818Z,100831.48
2019-05-15T19:27:44.659Z,100835.17
2019-05-15T19:30:13.723Z,100842.59
2019-05-15T19:32:41.264Z,100838.88
2019-05-15T19:35:09.129Z,100844.84
2019-05-15T19:37:38.470Z,100851.45
2019-05-15T19:40:11.784Z,100843.39
2019-05-15T19:42:48.644Z,100851.00
2019-05-15T19:45:17.552Z,100856.09
2019-05-15T19:47:47.829Z,100845.23
2019-05-15T19:50:17.928Z,100849.72
2019-05-15T19:52:48.239Z,100847.63
2019-05-15T19:55:21.105Z,100847.39
2019-05-15T19:57:48.671Z,100846.63
2019-05-15T20:00:18.748Z,100849.64
2019-05-15T20:02:58.132Z,100839.80
2019-05-15T20:05:28.688Z,100847.06
2019-05-15T20:07:58.543Z,100844.13
2019-05-15T20:10:25.176Z,100844.48
2019-05-15T20:12:53.119Z,100839.59
2019-05-15T20:15:24.042Z,100848.20
2019-05-15T20:17:52.838Z,100844.69
2019-05-15T20:20:20.470Z,100840.86
2019-05-15T20:22:48.268Z,100841.88
2019-05-15T20:25:18.457Z,100845.64
2019-05-15T20:27:47.982Z,100843.10
2019-05-15T20:30:18.031Z,100845.05
2019-05-15T20:32:47.988Z,100846.76
2019-05-15T20:35:15.915Z,100849.77
2019-05-15T20:37:45.796Z,100851.38
2019-05-15T20:40:14.202Z,100859.52
2019-05-15T20:42:41.512Z,100851.47
2019-05-15T20:45:12.389Z,100845.06
2019-05-15T20:47:40.698Z,100842.52
2019-05-15T20:50:08.724Z,100845.70
2019-05-15T20:52:39.342Z,100843.81
2019-05-15T20:55:08.311Z,100847.54
2019-05-15T20:57:40.882Z,100848.20
2019-05-15T21:00:10.496Z,100844.67
2019-05-15T21:02:38.711Z,100840.84
2019-05-15T21:05:15.019Z,100840.41
2019-05-15T21:07:43.257Z,100835.19
2019-05-15T21:10:11.572Z,100836.20
2019-05-15T21:12:41.833Z,100832.34
2019-05-15T21:15:12.334Z,100827.50
2019-05-15T21:17:41.708Z,100822.55
2019-05-15T21:20:09.469Z,100823.67
2019-05-15T21:22:36.885Z,100815.84
2019-05-15T21:25:04.579Z,100816.68
2019-05-15T21:27:33.466Z,100812.22
2019-05-15T21:30:02.856Z,100813.27
2019-05-15T21:32:32.142Z,100800.38
2019-05-15T21:34:59.350Z,100805.82
2019-05-15T21:37:27.509Z,100796.47
2019-05-15T21:39:55.598Z,100800.72
2019-05-15T21:42:22.672Z,100788.33
2019-05-15T21:44:49.909Z,100797.91
2019-05-15T21:47:18.875Z,100785.16
2019-05-15T21:49:48.206Z,100778.91
2019-05-15T21:52:18.538Z,100776.06
2019-05-15T21:54:47.447Z,100779.40
2019-05-15T21:57:32.372Z,100771.95
2019-05-15T21:59:50.426Z,100771.88
2019-05-15T22:02:18.190Z,100769.33
2019-05-15T22:04:52.809Z,100761.17
2019-05-15T22:07:17.862Z,100761.48
2019-05-15T22:09:48.715Z,100757.93
2019-05-15T22:12:23.195Z,100750.08
2019-05-15T22:14:52.248Z,100752.32
2019-05-15T22:17:19.479Z,100748.58
2019-05-15T22:19:49.215Z,100749.56
2019-05-15T22:22:17.955Z,100739.59
2019-05-15T22:24:45.696Z,100738.53
2019-05-15T22:27:13.315Z,100737.73
2019-05-15T22:29:45.134Z,100735.45
2019-05-15T22:32:12.708Z,100738.23
2019-05-15T22:34:41.112Z,100732.44
2019-05-15T22:37:09.014Z,100736.69
2019-05-15T22:39:38.422Z,100726.53
2019-05-15T22:42:05.659Z,100721.86
2019-05-15T22:44:33.038Z,100718.95
2019-05-15T22:47:00.150Z,100713.39
2019-05-15T22:49:28.842Z,100708.20
2019-05-15T22:51:58.134Z,100715.82
2019-05-15T22:54:25.147Z,100708.02
2019-05-15T22:56:52.195Z,100713.23
2019-05-15T22:59:21.595Z,100715.83
2019-05-15T23:01:49.799Z,100712.55
2019-05-15T23:04:18.112Z,100711.81
2019-05-15T23:06:45.450Z,100709.80
2019-05-15T23:09:12.561Z,100709.42
2019-05-15T23:11:39.775Z,100703.76
2019-05-15T23:14:08.135Z,100696.56
2019-05-15T23:16:35.449Z,100695.48
2019-05-15T23:19:02.636Z,100694.13
2019-05-15T23:21:29.669Z,100691.81
2019-05-15T23:23:57.920Z,100686.19
2019-05-15T23:26:24.950Z,100682.19
2019-05-15T23:28:53.116Z,100675.55
2019-05-15T23:31:20.244Z,100672.36
2019-05-15T23:33:48.935Z,100669.34
2019-05-15T23:36:17.889Z,100667.13
2019-05-15T23:38:44.968Z,100659.69
2019-05-15T23:41:13.906Z,100661.13
2019-05-15T23:43:40.945Z,100655.49
2019-05-15T23:46:08.480Z,100654.30
2019-05-15T23:48:37.707Z,100648.06
2019-05-15T23:51:05.333Z,100642.80
2019-05-15T23:53:32.450Z,100639.25
2019-05-15T23:56:01.109Z,100633.05
2019-05-15T23:58:29.203Z,100635.25
